METAR Formatted Surface Weather Observation
Issued by NWS

Home | Current Version | Previous Version | Text Only | Print | Product List | Glossary On
Versions: 1 2 3 4 5 6 7 8 9 10 11 12 13 14 15 16 17 18 19 20
000
SAUS45 KFGZ 010557 COR
MTRRQE
METAR KRQE 010553Z AUTO 11007KT 10SM FEW100 17/13 A3032 RMK AO2
RAE04 SLP136 P0000 60000 T01720128 10200 20172 58002 TSNO



USA.gov is the U.S. government's official web portal to all federal, state and local government web resources and services.